Tiempo atmosférico en la estación meteorológica de Monreal/Elo, Navarra (585 m.)



Fecha
DESCASC
Temp. máxima en grados centígrados (hora)
DESCASC
Temp. mínima en grados centígrados (hora)
DESCASC
Temp. media en grados centígrados
DESCASC
Racha de viento máxima en m/sg (hora)
DESCASC
Velocidad máxima media en intervalos de 10 minutos(hora)
DESCASC
Precipitaciones diarias en mm
DESCASC
Precipitaciones de 00:00 a 06:00 en mm
DESCASC
Precipitaciones de 06:00 a 12:00 en mm
DESCASC
Precipitaciones de 12:00 a 18:00 en mm
DESCASC
Precipitaciones de 18:00 a 24:00 en mm
DESCASC
23-06-2019 32 (17:40) 18.1 (00:00) 25.1 13.06 (15:00) 8.61 (11:00) 0 0 0 0 0
22-06-2019 28.2 (16:40) 6 (06:30) 17.1 8.61 (13:00) 6.67 (00:20) 0 0 0 0 0
21-06-2019 18 (17:00) 11 (23:59) 14.5 11.94 (17:00) 8.89 (20:00) 0.2 0.2 0 0 0
20-06-2019 20.4 (14:50) 13.1 (00:00) 16.8 14.44 (19:40) 10.28 (19:50) 1.4 0 0 0 1.4
19-06-2019 -- (--) -- (--) -- -- (--) -- (--) -- -- -- 0 0
18-06-2019 -- (--) -- (--) -- -- (--) -- (--) -- 0 0 0 --
17-06-2019 29.7 (16:30) 10.1 (00:00) 19.9 10 (15:10) 6.67 (14:00) 0 0 0 0 0
16-06-2019 26.5 (16:50) 5.4 (00:00) 16 7.22 (16:10) 6.11 (00:40) 0 0 0 0 0
15-06-2019 19.3 (15:30) 10.4 (00:00) 14.8 12.78 (16:00) 8.61 (01:40) 0 0 0 0 0
14-06-2019 24.7 (17:10) 10.2 (00:00) 17.5 13.89 (19:30) 10.56 (19:00) 0 0 0 0 0
13-06-2019 24.7 (18:20) 4.8 (00:00) 14.8 17.5 (20:50) 11.67 (21:00) 0 0 0 0 0
12-06-2019 19.1 (16:20) 3.1 (00:00) 11.1 11.39 (21:00) 8.61 (21:30) 0 0 0 0 0
11-06-2019 13.5 (15:40) 7.4 (00:00) 10.5 15.28 (14:10) 10 (14:10) 0.8 0.4 0 0.2 0.2
10-06-2019 14.5 (16:10) 9.2 (00:00) 11.8 15.28 (01:10) 11.67 (01:10) 0 0 0 0 0
09-06-2019 24.7 (15:20) 9.7 (00:00) 17.2 16.11 (17:30) 10.83 (20:10) 0 0 0 0 0
08-06-2019 22.6 (17:00) 3.4 (00:00) 13 10 (15:00) 6.67 (19:50) 0 0 0 0 0
07-06-2019 18.9 (16:00) 8.3 (00:00) 13.6 20 (02:20) 14.17 (01:30) 2 2 0 0 0
06-06-2019 22 (17:50) 6.5 (00:00) 14.3 20.56 (18:30) 14.44 (17:10) 0 0 0 0 0
05-06-2019 14 (18:40) 8.6 (00:00) 11.3 12.78 (16:00) 8.89 (17:40) 26 7 18.8 0.2 0
04-06-2019 28.8 (15:20) 10.6 (00:00) 19.7 18.89 (17:20) 13.89 (17:30) 3 0 0 1.8 1.2
03-06-2019 28.6 (16:50) 12.2 (00:00) 20.4 7.78 (14:50) 5.28 (17:10) 0 0 0 0 0
02-06-2019 30.9 (17:20) 13.6 (00:00) 22.3 11.39 (21:10) 7.78 (21:10) 0 0 0 0 0
01-06-2019 28.6 (17:20) 12.1 (00:00) 20.4 7.78 (13:40) 5.28 (14:10) 0 0 0 0 0
31-05-2019 26.4 (18:00) 7.7 (00:00) 17 9.44 (00:40) 6.94 (00:40) 0 0 0 0 0
30-05-2019 24.9 (17:10) 6.6 (00:00) 15.7 11.67 (19:40) 9.44 (20:00) 0 0 0 0 0
29-05-2019 15.8 (16:10) 7.9 (00:00) 11.9 15 (17:20) 10 (18:20) 0 0 0 0 0
28-05-2019 13.2 (13:30) 7.8 (00:00) 10.5 18.33 (16:40) 12.78 (17:30) 0.4 0 0.2 0.2 0
27-05-2019 16.3 (17:10) 9.9 (00:00) 13.1 15.28 (20:30) 11.67 (20:30) 0 0 0 0 0

Gráficas

Temp. máximas Temp. mínimas Temp. medias Precipitaciones Rachas de viento máximas Velocidades máximas media en intervalos de 10 minutos

Datos horarios

Fecha y hora oficial Temperatura (ºC) Velocidad del viento (km/h) Dirección del viento Racha (km/h) Dirección de racha Precipitación (mm) Presión (hPa) Tendencia (hPa) Humedad (%)
2019-06-25 23:00:00 22.2 9 Noroeste 25 Noroeste 0 -- -- 82
2019-06-25 22:00:00 24 20 Noroeste 35 Noroeste 0 -- -- 75
2019-06-25 21:00:00 26.6 25 Noroeste 37 Noroeste 0 -- -- 67
2019-06-25 20:00:00 31.6 6 Sur 26 Sudeste 0 -- -- 40
2019-06-25 19:00:00 32.4 19 Sudeste 28 Sudeste 0 -- -- 34
2019-06-25 18:00:00 32.7 15 Sudeste 31 Sudeste 0 -- -- 35
2019-06-25 17:00:00 32.3 23 Sudeste 38 Este 0 -- -- 37
2019-06-25 16:00:00 32 23 Sur 37 Sudeste 0 -- -- 35
2019-06-25 15:00:00 31.2 17 Sur 35 Sur 0 -- -- 41
2019-06-25 14:00:00 29.8 18 Sudeste 28 Sudeste 0 -- -- 42
2019-06-25 13:00:00 28.4 7 Sudoeste 18 Este 0 -- -- 45
2019-06-25 12:00:00 26.2 14 Sudeste 22 Sudeste 0 -- -- 51
2019-06-25 11:00:00 23.1 4 Noroeste 9 Noroeste 0 -- -- 69
2019-06-25 10:00:00 19.9 5 Sudeste 10 Sudeste 0 -- -- 77
2019-06-25 09:00:00 17.6 3 Sudeste 7 Sur 0 -- -- 87
2019-06-25 08:00:00 16 3 Sudeste 5 Sudeste 0 -- -- 91
2019-06-25 07:00:00 15.3 3 Sudeste 8 Sudeste 0 -- -- 94
2019-06-25 06:00:00 15 6 Sudeste 8 Sudeste 0 -- -- 93
2019-06-25 05:00:00 15.1 2 Sudeste 5 Este 0 -- -- 94
2019-06-25 04:00:00 15.6 0 Calma 9 Noroeste 0 -- -- 91
2019-06-25 03:00:00 15.8 9 Noroeste 24 Noroeste 0 -- -- 92
2019-06-25 02:00:00 16.7 18 Noroeste 33 Noroeste 0 -- -- 89
2019-06-25 01:00:00 17.7 27 Noroeste 46 Noroeste 0 -- -- 85
2019-06-25 00:00:00 19.6 28 Noroeste 38 Noroeste 0 -- -- 75
2019-06-24 23:00:00 22.3 15 Noroeste 25 Noroeste 0 -- -- 62
2019-06-24 22:00:00 24.9 12 Sudeste 23 Sudeste 0 -- -- 41
2019-06-24 21:00:00 27.1 21 Sudeste 25 Sudeste 0 -- -- 36
2019-06-24 20:00:00 27.5 12 Sudeste 27 Sudeste 0 -- -- 40
2019-06-24 19:00:00 27.5 17 Sudeste 30 Sudeste 0 -- -- 36
2019-06-24 18:00:00 29.5 23 Sudeste 40 Sudeste 0 -- -- 29
2019-06-24 17:00:00 30.5 23 Sudeste 43 Sudeste 0 -- -- 26
2019-06-24 16:00:00 28.8 24 Sudeste 44 Sudeste 0 -- -- 31
2019-06-24 15:00:00 27.5 27 Sudeste 46 Sudeste 0 -- -- 28
2019-06-24 14:00:00 28.1 32 Sur 50 Sudeste 0 -- -- 29
2019-06-24 13:00:00 27.9 38 Sur 51 Sudeste 0 -- -- 29
2019-06-24 12:00:00 27 35 Sur 53 Sudeste 0 -- -- 32
2019-06-24 11:00:00 26.6 33 Sudeste 46 Sudeste 0 -- -- 34
2019-06-24 10:00:00 24.9 32 Sudeste 41 Sudeste 0 -- -- 39
2019-06-24 09:00:00 23.4 26 Sudeste 37 Sudeste 0 -- -- 39
2019-06-24 08:00:00 22 28 Sudeste 38 Sudeste 0 -- -- 42
2019-06-24 07:00:00 20.8 25 Sudeste 36 Sudeste 0 -- -- 46
2019-06-24 06:00:00 22.4 21 Sudeste 40 Sudeste 0 -- -- 42
2019-06-24 05:00:00 22.9 30 Sudeste 42 Sudeste 0 -- -- 39
2019-06-24 04:00:00 22.1 22 Sudeste 30 Sudeste 0 -- -- 40
2019-06-24 03:00:00 18.9 4 Oeste 13 Sur 0 -- -- 74
2019-06-24 02:00:00 17.4 4 Nordeste 16 Noroeste 0 -- -- 85
2019-06-24 01:00:00 19 11 Noroeste 18 Noroeste 0 -- -- 83
2019-06-24 00:00:00 19.7 8 Norte 15 Noroeste 0 -- -- 81
2019-06-23 23:00:00 20.7 10 Noroeste 23 Noroeste 0 -- -- 77
2019-06-23 22:00:00 22.5 19 Noroeste 30 Noroeste 0 -- -- 72
2019-06-23 21:00:00 26.4 8 Oeste 24 Noroeste 0 -- -- 56
2019-06-23 20:00:00 30.1 17 Sudeste 29 Este 0 -- -- 36
2019-06-23 19:00:00 31 17 Sudeste 37 Sudeste 0 -- -- 34
2019-06-23 18:00:00 31.4 22 Sudeste 36 Sudeste 0 -- -- 33
2019-06-23 17:00:00 31.5 22 Sudeste 35 Sudeste 0 -- -- 33
2019-06-23 16:00:00 29.9 23 Sudeste 38 Sudeste 0 -- -- 34
2019-06-23 15:00:00 30.7 28 Sur 47 Sudeste 0 -- -- 34
2019-06-23 14:00:00 29.7 24 Sudeste 40 Sudeste 0 -- -- 40
2019-06-23 13:00:00 28.5 27 Sudeste 42 Sudeste 0 -- -- 43
2019-06-23 12:00:00 26.9 21 Sudeste 40 Sudeste 0 -- -- 46
2019-06-23 11:00:00 25 31 Sudeste 39 Sudeste 0 -- -- 52
2019-06-23 10:00:00 23.8 25 Sudeste 35 Sudeste 0 -- -- 56
2019-06-23 09:00:00 21.3 14 Sur 23 Sudeste 0 -- -- 61
2019-06-23 08:00:00 19 13 Sudeste 27 Sudeste 0 -- -- 67
2019-06-23 07:00:00 19.8 23 Sudeste 28 Sudeste 0 -- -- 59
2019-06-23 06:00:00 20.2 20 Sur 34 Sudeste 0 -- -- 52
2019-06-23 05:00:00 20.2 22 Sudeste 35 Sudeste 0 -- -- 51
2019-06-23 04:00:00 19.3 17 Sudeste 27 Sudeste 0 -- -- 54
2019-06-23 03:00:00 19.3 14 Sur 24 Sudeste 0 -- -- 55
2019-06-23 02:00:00 19.7 12 Sudeste 23 Sudeste 0 -- -- 54
2019-06-23 01:00:00 19.2 14 Sudeste 19 Sudeste 0 -- -- 55
2019-06-23 00:00:00 18.1 10 Sudeste 15 Sudeste 0 -- -- 64
2019-06-22 23:00:00 17.6 11 Sudeste 14 Sudeste 0 -- -- 68
2019-06-22 22:00:00 19.3 9 Sudeste 11 Sur 0 -- -- 64
2019-06-22 21:00:00 23.4 7 Sur 17 Sudeste 0 -- -- 50
2019-06-22 20:00:00 26.1 12 Sudeste 19 Sudeste 0 -- -- 38
2019-06-22 19:00:00 27.9 12 Sur 23 Sur 0 -- -- 36
2019-06-22 18:00:00 27.7 9 Sudeste 27 Sudeste 0 -- -- 34
2019-06-22 17:00:00 27.1 13 Sudeste 24 Sur 0 -- -- 39
2019-06-22 16:00:00 27.7 7 Sur 21 Oeste 0 -- -- 42
2019-06-22 15:00:00 26.6 13 Sur 25 Sudeste 0 -- -- 42
2019-06-22 14:00:00 25.9 6 Sudoeste 30 Sur 0 -- -- 45
2019-06-22 13:00:00 23.6 13 Sur 31 Sur 0 -- -- 46
2019-06-22 12:00:00 22.4 12 Este 21 Nordeste 0 -- -- 47
2019-06-22 11:00:00 19.4 3 Sudoeste 10 Este 0 -- -- 67
2019-06-22 10:00:00 15.7 7 Sudeste 12 Sudeste 0 -- -- 74
2019-06-22 09:00:00 12.4 3 Noroeste 8 Sudeste 0 -- -- 88
2019-06-22 08:00:00 7.7 7 Este 10 Sudeste 0 -- -- 98
2019-06-22 07:00:00 6 7 Sudeste 12 Sudeste 0 -- -- 98
2019-06-22 06:00:00 6.5 7 Sudeste 9 Sudeste 0 -- -- 97
2019-06-22 05:00:00 7.1 6 Sudeste 9 Norte 0 -- -- 97
2019-06-22 04:00:00 8.8 5 Norte 17 Noroeste 0 -- -- 95
2019-06-22 03:00:00 9.9 15 Noroeste 22 Noroeste 0 -- -- 93
2019-06-22 02:00:00 10.3 15 Noroeste 25 Noroeste 0 -- -- 91
2019-06-22 01:00:00 10.7 18 Noroeste 30 Noroeste 0 -- -- 90
2019-06-22 00:00:00 11 21 Noroeste 27 Noroeste 0 -- -- 89
2019-06-21 23:00:00 11.9 19 Noroeste 30 Noroeste 0 -- -- 85
2019-06-21 22:00:00 12.5 19 Noroeste 37 Noroeste 0 -- -- 83
2019-06-21 21:00:00 14 30 Norte 42 Norte 0 -- -- 75
2019-06-21 20:00:00 14.9 32 Norte 42 Norte 0 -- -- 73
2019-06-21 19:00:00 16.7 26 Norte 37 Norte 0 -- -- 68
2019-06-21 18:00:00 16.5 21 Norte 40 Norte 0 -- -- 70
2019-06-21 17:00:00 18 28 Noroeste 43 Noroeste 0 -- -- 64
2019-06-21 16:00:00 17.2 28 Noroeste 42 Noroeste 0 -- -- 68
2019-06-21 15:00:00 16.7 29 Noroeste 41 Noroeste 0 -- -- 71
2019-06-21 14:00:00 16.2 24 Noroeste 36 Noroeste 0 -- -- 72
2019-06-21 13:00:00 15.6 26 Noroeste 38 Noroeste 0 -- -- 76
2019-06-21 12:00:00 15.2 27 Noroeste 36 Noroeste 0 -- -- 79
2019-06-21 11:00:00 15.2 18 Noroeste 28 Noroeste 0 -- -- 83
2019-06-21 10:00:00 13.2 21 Noroeste 33 Oeste 0 -- -- 90
2019-06-21 09:00:00 12.4 21 Noroeste 30 Oeste 0 -- -- 93
2019-06-21 08:00:00 12.4 18 Noroeste 26 Oeste 0 -- -- 93
2019-06-21 07:00:00 12.2 21 Noroeste 32 Oeste 0 -- -- 94
2019-06-21 06:00:00 12.2 19 Noroeste 28 Noroeste 0 -- -- 95
2019-06-21 05:00:00 12.3 19 Noroeste 29 Noroeste 0 -- -- 95
2019-06-21 04:00:00 12.5 22 Noroeste 34 Noroeste 0 -- -- 95
2019-06-21 03:00:00 12.9 23 Noroeste 31 Noroeste 0 -- -- 95
2019-06-21 02:00:00 13 26 Noroeste 39 Oeste 0 -- -- 95
2019-06-21 01:00:00 13 21 Noroeste 31 Noroeste 0.2 -- -- 96
2019-06-21 00:00:00 13.1 16 Noroeste 36 Noroeste 0.2 -- -- 96
2019-06-20 23:00:00 13.1 28 Noroeste 42 Noroeste 0.2 -- -- 96
2019-06-20 22:00:00 13.5 19 Noroeste 27 Noroeste 0 -- -- 95
2019-06-20 21:00:00 13.7 22 Noroeste 43 Noroeste 1 -- -- 94
2019-06-20 20:00:00 14.4 37 Noroeste 52 Oeste 0 -- -- 88
2019-06-20 19:00:00 16.8 29 Noroeste 42 Noroeste 0 -- -- 77
2019-06-20 18:00:00 18.1 31 Noroeste 42 Noroeste 0 -- -- 74
2019-06-20 17:00:00 17.2 32 Oeste 44 Noroeste 0 -- -- 76
2019-06-20 16:00:00 19.7 31 Noroeste 41 Noroeste 0 -- -- 65
2019-06-20 15:00:00 20.2 26 Noroeste 41 Oeste 0 -- -- 66
2019-06-20 14:00:00 19.7 28 Oeste 41 Oeste 0 -- -- 69
2019-06-20 13:00:00 19.3 27 Noroeste 37 Noroeste 0 -- -- 68
2019-06-20 12:00:00 18.4 23 Noroeste 33 Noroeste 0 -- -- 72
2019-06-20 11:00:00 17 23 Noroeste 32 Noroeste 0 -- -- 76
2019-06-20 10:00:00 15.8 22 Noroeste 32 Noroeste 0 -- -- 81
2019-06-20 09:00:00 15.7 23 Noroeste 32 Noroeste 0 -- -- 82
2019-06-20 08:00:00 14.6 23 Noroeste 33 Noroeste 0 -- -- 87
2019-06-20 07:00:00 13.7 20 Noroeste 28 Noroeste 0 -- -- 91
2019-06-20 06:00:00 13.4 19 Noroeste 28 Noroeste 0 -- -- 90
2019-06-20 05:00:00 13.7 21 Noroeste 30 Noroeste 0 -- -- 88
2019-06-20 04:00:00 13.7 24 Noroeste 33 Noroeste 0 -- -- 88
2019-06-20 03:00:00 13.5 22 Noroeste 33 Noroeste 0 -- -- 89
2019-06-20 02:00:00 14.1 23 Noroeste 38 Noroeste 0 -- -- 85
2019-06-20 01:00:00 14.5 24 Noroeste 36 Noroeste 0 -- -- 84
2019-06-20 00:00:00 14.8 24 Noroeste 37 Oeste 0 -- -- 84
2019-06-19 23:00:00 16 31 Noroeste 40 Oeste 0 -- -- 81
2019-06-19 22:00:00 17.6 26 Noroeste 40 Noroeste 0 -- -- 77
2019-06-19 21:00:00 22.1 14 Noroeste 26 Noroeste 0 -- -- 64
2019-06-19 20:00:00 23.9 10 Noroeste 23 Noroeste 0 -- -- 48
2019-06-19 19:00:00 25 10 Norte 21 Norte 0 -- -- 44
2019-06-19 18:00:00 24 13 Norte 18 Norte 0 -- -- 47
2019-06-19 17:00:00 25.4 6 Noroeste 20 Norte 0 -- -- 46
2019-06-19 16:00:00 24.2 12 Norte 25 Noroeste 0 -- -- 49
2019-06-19 15:00:00 24.1 9 Noroeste 19 Oeste 0 -- -- 49
2019-06-19 14:00:00 23.9 9 Sudoeste 21 Sudoeste 0 -- -- 48
2019-06-19 13:00:00 24.1 12 Sur -- -- -- -- -- 49
2019-06-19 12:00:00 -- -- -- -- -- -- -- -- --
2019-06-19 11:00:00 -- -- -- -- -- -- -- -- --
2019-06-19 10:00:00 -- -- -- -- -- -- -- -- --
2019-06-19 09:00:00 -- -- -- -- -- -- -- -- --
2019-06-19 08:00:00 -- -- -- -- -- -- -- -- --
2019-06-19 07:00:00 -- -- -- -- -- -- -- -- --
2019-06-19 06:00:00 -- -- -- -- -- -- -- -- --
2019-06-19 05:00:00 -- -- -- -- -- -- -- -- --
2019-06-19 04:00:00 -- -- -- -- -- -- -- -- --
2019-06-19 03:00:00 -- -- -- -- -- -- -- -- --
2019-06-19 02:00:00 -- -- -- -- -- -- -- -- --
2019-06-19 01:00:00 -- -- -- -- -- -- -- -- --
2019-06-19 00:00:00 -- -- -- -- -- -- -- -- --
2019-06-18 23:00:00 -- -- -- -- -- -- -- -- --
2019-06-18 22:00:00 -- -- -- -- -- -- -- -- --
2019-06-18 21:00:00 -- -- -- -- -- -- -- -- --
2019-06-18 20:00:00 -- -- -- -- -- -- -- -- --
2019-06-18 19:00:00 30.4 32 Sur 56 Sur 0 -- -- 20
2019-06-18 18:00:00 30.6 37 Sur 57 Sur 0 -- -- 24
2019-06-18 17:00:00 30.3 39 Sur 59 Sudeste 0 -- -- 25
2019-06-18 16:00:00 29.9 28 Sudeste 71 Sudeste 0 -- -- 30
2019-06-18 15:00:00 29.5 29 Sudeste 57 Sudeste 0 -- -- 33
2019-06-18 14:00:00 28.6 32 Sudeste 54 Sudeste 0 -- -- 32
2019-06-18 13:00:00 27.4 32 Sudeste 47 Sudeste 0 -- -- 32
2019-06-18 12:00:00 25.8 28 Sur 47 Sudeste 0 -- -- 36
2019-06-18 11:00:00 24.6 25 Sur 39 Sur 0 -- -- 36
2019-06-18 10:00:00 23.4 21 Sudeste 31 Sudeste 0 -- -- 44
2019-06-18 09:00:00 22 12 Sur 28 Sudeste 0 -- -- 51
2019-06-18 08:00:00 19.1 14 Sudeste 25 Sudeste 0 -- -- 54
2019-06-18 07:00:00 16.7 15 Sudeste 23 Sur 0 -- -- 59
2019-06-18 06:00:00 16.6 11 Sudeste 18 Este 0 -- -- 63
2019-06-18 05:00:00 19 5 Sudeste 17 Noroeste 0 -- -- 53
2019-06-18 04:00:00 20.1 10 Oeste 29 Sudeste 0 -- -- 47
2019-06-18 03:00:00 20.6 23 Sudeste 32 Sudeste 0 -- -- 48
2019-06-18 02:00:00 20 17 Sudeste 24 Sudeste 0 -- -- 53
2019-06-18 01:00:00 20.6 12 Sudeste 18 Este 0 -- -- 49
2019-06-18 00:00:00 21.1 6 Sudeste 12 Sudeste 0 -- -- 41
2019-06-17 23:00:00 18.7 9 Sudeste 14 Sudeste 0 -- -- 59
2019-06-17 22:00:00 20.2 10 Sudeste 12 Sudeste 0 -- -- 62
2019-06-17 21:00:00 22.2 8 Sudeste 12 Sudeste 0 -- -- 49
2019-06-17 20:00:00 26.2 5 Sudeste 15 Sudeste 0 -- -- 39
2019-06-17 19:00:00 28.5 12 Sudeste 26 Sudeste 0 -- -- 28
2019-06-17 18:00:00 29.7 12 Sudeste 34 Sudeste 0 -- -- 29
2019-06-17 17:00:00 29.7 18 Este 34 Sudeste 0 -- -- 26
2019-06-17 16:00:00 29.2 18 Sudeste 36 Sudeste 0 -- -- 30
2019-06-17 15:00:00 28.6 13 Sudeste 30 Sudeste 0 -- -- 30
2019-06-17 14:00:00 27.1 24 Sudeste 34 Sudeste 0 -- -- 37
2019-06-17 13:00:00 25.8 19 Sudeste 34 Sudeste 0 -- -- 42
2019-06-17 12:00:00 24.5 15 Sudeste 26 Sur 0 -- -- 47
2019-06-17 11:00:00 23.6 5 Sudoeste 9 Oeste 0 -- -- 56
2019-06-17 10:00:00 20.8 3 Oeste 8 Noroeste 0 -- -- 66
2019-06-17 09:00:00 16.1 4 Norte 8 Este 0 -- -- 79
2019-06-17 08:00:00 13.3 5 Este 10 Sudeste 0 -- -- 89
2019-06-17 07:00:00 10.7 9 Sudeste 10 Este 0 -- -- 91
2019-06-17 06:00:00 10.5 8 Sudeste 11 Sudeste 0 -- -- 92
2019-06-17 05:00:00 10.6 9 Sudeste 11 Sudeste 0 -- -- 93
2019-06-17 04:00:00 11.3 8 Sudeste 12 Sudeste 0 -- -- 91
2019-06-17 03:00:00 11.6 8 Sudeste 12 Sudeste 0 -- -- 91
2019-06-17 02:00:00 12.5 9 Sudeste 12 Sudeste 0 -- -- 92
2019-06-17 01:00:00 13.5 8 Sudeste 11 Sudeste 0 -- -- 87
2019-06-17 00:00:00 14.5 7 Sudeste 9 Sudeste 0 -- -- 84
2019-06-16 23:00:00 17.4 4 Oeste 20 Norte 0 -- -- 73
2019-06-16 22:00:00 20.2 18 Norte 23 Norte 0 -- -- 64
2019-06-16 21:00:00 21.7 15 Norte 21 Norte 0 -- -- 59
2019-06-16 20:00:00 24.6 10 Nordeste 14 Este 0 -- -- 41
2019-06-16 19:00:00 26.1 8 Este 16 Sudeste 0 -- -- 34
2019-06-16 18:00:00 26.4 5 Sur 23 Sur 0 -- -- 36
2019-06-16 17:00:00 26 14 Sur 26 Sur 0 -- -- 32
2019-06-16 16:00:00 25.8 12 Sudeste 26 Sudeste 0 -- -- 39
2019-06-16 15:00:00 25.3 8 Sudeste 24 Sudeste 0 -- -- 38
2019-06-16 14:00:00 23.9 8 Sur 24 Sudeste 0 -- -- 38
2019-06-16 13:00:00 23.7 12 Sudeste 19 Sudeste 0 -- -- 43
2019-06-16 12:00:00 21.6 6 Sur 14 Sur 0 -- -- 43
2019-06-16 11:00:00 19.1 4 Sur 10 Sur 0 -- -- 58
2019-06-16 10:00:00 15.5 2 Este 6 Sur 0 -- -- 72
2019-06-16 09:00:00 11.7 4 Este 6 Este 0 -- -- 88
2019-06-16 08:00:00 7.7 5 Este 8 Sudeste 0 -- -- 97
2019-06-16 07:00:00 5.7 6 Sudeste 9 Sudeste 0 -- -- 97
2019-06-16 06:00:00 6.3 6 Sudeste 8 Sudeste 0 -- -- 96
2019-06-16 05:00:00 6.9 0 Calma 6 Sudeste 0 -- -- 95
2019-06-16 04:00:00 7.4 2 Nordeste 10 Noroeste 0 -- -- 95
2019-06-16 03:00:00 8.4 5 Noroeste 12 Noroeste 0 -- -- 95
2019-06-16 02:00:00 9.3 6 Noroeste 17 Norte 0 -- -- 91
2019-06-16 01:00:00 10.2 15 Noroeste 26 Noroeste 0 -- -- 88
2019-06-16 00:00:00 11.2 14 Noroeste 19 Noroeste 0 -- -- 82
2019-06-15 23:00:00 12 15 Noroeste 23 Noroeste 0 -- -- 78
2019-06-15 22:00:00 13.5 19 Noroeste 35 Noroeste 0 -- -- 71
2019-06-15 21:00:00 15.6 28 Noroeste 43 Norte 0 -- -- 62
2019-06-15 20:00:00 16.9 24 Norte 38 Noroeste 0 -- -- 59
2019-06-15 19:00:00 17.8 25 Norte 46 Noroeste 0 -- -- 55
2019-06-15 18:00:00 17.8 24 Noroeste 42 Noroeste 0 -- -- 55
2019-06-15 17:00:00 17.4 19 Noroeste 37 Noroeste 0 -- -- 55
2019-06-15 16:00:00 18.7 25 Noroeste 46 Noroeste 0 -- -- 53
2019-06-15 15:00:00 19 25 Noroeste 44 Noroeste 0 -- -- 54
2019-06-15 14:00:00 18.1 22 Noroeste 36 Noroeste 0 -- -- 56
2019-06-15 13:00:00 17.5 22 Noroeste 35 Noroeste 0 -- -- 61
2019-06-15 12:00:00 16.1 22 Noroeste 33 Noroeste 0 -- -- 70
2019-06-15 11:00:00 15 22 Noroeste 33 Noroeste 0 -- -- 72
2019-06-15 10:00:00 13.8 21 Noroeste 30 Noroeste 0 -- -- 74
2019-06-15 09:00:00 12.1 16 Noroeste 26 Noroeste 0 -- -- 81
2019-06-15 08:00:00 10.8 20 Noroeste 32 Noroeste 0 -- -- 87
2019-06-15 07:00:00 10.4 21 Noroeste 36 Oeste 0 -- -- 88
2019-06-15 06:00:00 10.6 26 Noroeste 39 Noroeste 0 -- -- 88
2019-06-15 05:00:00 11 19 Noroeste 33 Noroeste 0 -- -- 88
2019-06-15 04:00:00 11.3 23 Noroeste 32 Noroeste 0 -- -- 87
2019-06-15 03:00:00 11.5 18 Noroeste 32 Oeste 0 -- -- 87
2019-06-15 02:00:00 11.7 24 Noroeste 41 Noroeste 0 -- -- 88
2019-06-15 01:00:00 12.3 28 Noroeste 41 Oeste 0 -- -- 88
2019-06-15 00:00:00 12.5 27 Noroeste 36 Oeste 0 -- -- 88
2019-06-14 23:00:00 12.5 27 Noroeste 37 Noroeste 0 -- -- 88
2019-06-14 22:00:00 12.8 27 Noroeste 42 Noroeste 0 -- -- 88
2019-06-14 21:00:00 13.3 31 Noroeste 45 Noroeste 0 -- -- 85
2019-06-14 20:00:00 15.5 35 Noroeste 50 Oeste 0 -- -- 79
2019-06-14 19:00:00 18.8 38 Noroeste 48 Noroeste 0 -- -- 69
2019-06-14 18:00:00 21.8 30 Oeste 44 Oeste 0 -- -- 62
2019-06-14 17:00:00 23.5 5 Noroeste 17 Sudeste 0 -- -- 47
2019-06-14 16:00:00 22.7 11 Sudeste 21 Sudeste 0 -- -- 52
2019-06-14 15:00:00 22 7 Nordeste 30 Nordeste 0 -- -- 57
2019-06-14 14:00:00 18.6 4 Noroeste 11 Oeste 0 -- -- 71
2019-06-14 13:00:00 16.3 7 Noroeste 11 Noroeste 0 -- -- 75
2019-06-14 12:00:00 15.1 5 Noroeste 17 Oeste 0 -- -- 78
2019-06-14 11:00:00 14.6 3 Oeste 12 Sur 0 -- -- 78
2019-06-14 10:00:00 13.9 2 Sur 12 Noroeste 0 -- -- 79
2019-06-14 09:00:00 11.9 8 Noroeste 11 Noroeste 0 -- -- 88
2019-06-14 08:00:00 10.5 5 Noroeste 11 Norte 0 -- -- 94
2019-06-14 07:00:00 10.6 8 Noroeste 19 Noroeste 0 -- -- 93
2019-06-14 06:00:00 10.6 14 Noroeste 20 Noroeste 0 -- -- 93
2019-06-14 05:00:00 10.8 13 Noroeste 20 Noroeste 0 -- -- 92
2019-06-14 04:00:00 10.9 15 Noroeste 20 Noroeste 0 -- -- 92
2019-06-14 03:00:00 11.3 15 Noroeste 22 Noroeste 0 -- -- 90
2019-06-14 02:00:00 11.5 15 Noroeste 25 Oeste 0 -- -- 90
2019-06-14 01:00:00 11.8 21 Noroeste 33 Noroeste 0 -- -- 89
2019-06-14 00:00:00 12.1 26 Noroeste 42 Noroeste 0 -- -- 88
2019-06-13 23:00:00 12.6 29 Noroeste 52 Oeste 0 -- -- 88
2019-06-13 22:00:00 13.2 34 Noroeste 58 Noroeste 0 -- -- 87
2019-06-13 21:00:00 14.8 42 Noroeste 63 Noroeste 0 -- -- 81
2019-06-13 20:00:00 23.1 31 Sudeste 50 Sudeste 0 -- -- 46
2019-06-13 19:00:00 23.6 37 Sudeste 52 Sudeste 0 -- -- 45
2019-06-13 18:00:00 24.5 34 Sudeste 51 Sur 0 -- -- 42
2019-06-13 17:00:00 23.5 30 Sudeste 54 Este 0 -- -- 47
2019-06-13 16:00:00 24 33 Sudeste 53 Sudeste 0 -- -- 43
2019-06-13 15:00:00 22.9 33 Sur 57 Este 0 -- -- 51
2019-06-13 14:00:00 21.8 28 Sudeste 53 Sudeste 0 -- -- 53
2019-06-13 13:00:00 20.1 36 Sudeste 51 Sudeste 0 -- -- 54
2019-06-13 12:00:00 19.1 29 Sur 44 Sur 0 -- -- 55
2019-06-13 11:00:00 17.3 30 Sur 47 Sudeste 0 -- -- 56
2019-06-13 10:00:00 16.3 28 Sudeste 40 Sudeste 0 -- -- 52
2019-06-13 09:00:00 12.3 12 Sudeste 18 Sudeste 0 -- -- 68
2019-06-13 08:00:00 10.2 3 Sur 9 Sur 0 -- -- 75
2019-06-13 07:00:00 5.6 2 Este 7 Sudeste 0 -- -- 98
2019-06-13 06:00:00 5.7 2 Sudeste 13 Este 0 -- -- 97
2019-06-13 05:00:00 5.3 4 Sudeste 13 Sudeste 0 -- -- 97
2019-06-13 04:00:00 5.1 4 Sudeste 9 Sudeste 0 -- -- 96
2019-06-13 03:00:00 6.1 6 Sudeste 8 Sudeste 0 -- -- 95
2019-06-13 02:00:00 7.1 3 Sudeste 9 Noroeste 0 -- -- 94
2019-06-13 01:00:00 8.2 8 Noroeste 17 Noroeste 0 -- -- 92
2019-06-13 00:00:00 9.3 15 Noroeste 25 Noroeste 0 -- -- 89
2019-06-12 23:00:00 9.8 18 Noroeste 32 Noroeste 0 -- -- 86
2019-06-12 22:00:00 11.6 26 Noroeste 40 Oeste 0 -- -- 77
2019-06-12 21:00:00 14.1 29 Noroeste 41 Oeste 0 -- -- 68
2019-06-12 20:00:00 16.9 13 Noroeste 24 Oeste 0 -- -- 51
2019-06-12 19:00:00 18.6 9 Nordeste 19 Norte 0 -- -- 39
2019-06-12 18:00:00 18.2 9 Nordeste 13 Nordeste 0 -- -- 40
2019-06-12 17:00:00 17.6 4 Norte 19 Sur 0 -- -- 38
2019-06-12 16:00:00 17.6 8 Noroeste 22 Oeste 0 -- -- 40
2019-06-12 15:00:00 18.1 9 Sudoeste 24 Sur 0 -- -- 36
2019-06-12 14:00:00 16.9 10 Oeste 26 Oeste 0 -- -- 42
2019-06-12 13:00:00 15.7 11 Oeste 22 Sudoeste 0 -- -- 46
2019-06-12 12:00:00 13.8 7 Noroeste 14 Noroeste 0 -- -- 56
2019-06-12 11:00:00 13.7 3 Sudoeste 14 Noroeste 0 -- -- 57
2019-06-12 10:00:00 12.4 4 Noroeste 9 Noroeste 0 -- -- 54
2019-06-12 09:00:00 9.7 3 Sudoeste 8 Sudeste 0 -- -- 80
2019-06-12 08:00:00 5.7 6 Sudeste 15 Sudeste 0 -- -- 92
2019-06-12 07:00:00 3.5 8 Sudeste 13 Sudeste 0 -- -- 94
2019-06-12 06:00:00 3.5 11 Sudeste 14 Sudeste 0 -- -- 95
2019-06-12 05:00:00 3.4 11 Sudeste 15 Sudeste 0 -- -- 95
2019-06-12 04:00:00 4 9 Sudeste 14 Sudeste 0 -- -- 95
2019-06-12 03:00:00 3.9 10 Sudeste 12 Sudeste 0 -- -- 95
2019-06-12 02:00:00 5 8 Sudeste 15 Norte 0 -- -- 92
2019-06-12 01:00:00 7.9 11 Norte 15 Norte 0 -- -- 84
2019-06-12 00:00:00 7.7 4 Norte 15 Noroeste 0 -- -- 88
2019-06-11 23:00:00 7.8 8 Noroeste 35 Noroeste 0 -- -- 85
2019-06-11 22:00:00 8.6 22 Norte 38 Norte 0 -- -- 83
2019-06-11 21:00:00 9.5 18 Noroeste 39 Noroeste 0 -- -- 83
2019-06-11 20:00:00 9 24 Noroeste 53 Noroeste 0.2 -- -- 87
2019-06-11 19:00:00 11.7 20 Noroeste 34 Oeste 0 -- -- 73
2019-06-11 18:00:00 10.9 24 Noroeste 42 Norte 0 -- -- 71
2019-06-11 17:00:00 12.8 27 Noroeste 45 Noroeste 0 -- -- 65
2019-06-11 16:00:00 11.3 34 Noroeste 49 Norte 0.2 -- -- 70
2019-06-11 15:00:00 12.6 21 Noroeste 55 Noroeste 0 -- -- 67
2019-06-11 14:00:00 12.3 24 Noroeste 49 Noroeste 0 -- -- 68
2019-06-11 13:00:00 11 27 Oeste 50 Noroeste 0 -- -- 68
2019-06-11 12:00:00 11.4 26 Noroeste 39 Noroeste 0 -- -- 63
2019-06-11 11:00:00 10.9 24 Noroeste 35 Noroeste 0 -- -- 70
2019-06-11 10:00:00 9.9 18 Noroeste 32 Oeste 0 -- -- 80
2019-06-11 09:00:00 8.8 13 Noroeste 28 Noroeste 0 -- -- 90
2019-06-11 08:00:00 7.8 15 Noroeste 19 Noroeste 0 -- -- 94
2019-06-11 07:00:00 7.5 10 Norte 20 Noroeste 0 -- -- 93
2019-06-11 06:00:00 7.6 16 Noroeste 23 Noroeste 0.2 -- -- 93
2019-06-11 05:00:00 7.7 10 Noroeste 19 Noroeste 0 -- -- 90
2019-06-11 04:00:00 7.7 15 Noroeste 23 Noroeste 0 -- -- 92
2019-06-11 03:00:00 8.3 16 Noroeste 23 Noroeste 0.2 -- -- 88
2019-06-11 02:00:00 9.1 17 Noroeste 27 Noroeste 0 -- -- 80
2019-06-11 01:00:00 9.5 20 Noroeste 28 Noroeste 0 -- -- 73
2019-06-11 00:00:00 9.2 20 Noroeste 34 Noroeste 0 -- -- 79
2019-06-10 23:00:00 9.6 26 Noroeste 39 Noroeste 0 -- -- 75
2019-06-10 22:00:00 10.3 22 Noroeste 31 Noroeste 0 -- -- 71
2019-06-10 21:00:00 11.3 24 Norte 38 Norte 0 -- -- 66
2019-06-10 20:00:00 11.9 28 Norte 43 Noroeste 0 -- -- 64
2019-06-10 19:00:00 12.7 29 Norte 44 Norte 0 -- -- 64
2019-06-10 18:00:00 13.4 30 Noroeste 51 Noroeste 0 -- -- 61
2019-06-10 17:00:00 13.8 27 Norte 46 Noroeste 0 -- -- 68
2019-06-10 16:00:00 14.2 27 Noroeste 42 Norte 0 -- -- 66
2019-06-10 15:00:00 12.9 23 Noroeste 41 Noroeste 0 -- -- 70
2019-06-10 14:00:00 12.1 28 Noroeste 45 Noroeste 0 -- -- 73
2019-06-10 13:00:00 12.3 29 Noroeste 41 Noroeste 0 -- -- 74
2019-06-10 12:00:00 11.8 27 Noroeste 42 Noroeste 0 -- -- 75
2019-06-10 11:00:00 10.9 33 Noroeste 47 Noroeste 0 -- -- 79
2019-06-10 10:00:00 10.6 34 Noroeste 44 Noroeste 0 -- -- 81
2019-06-10 09:00:00 9.9 31 Noroeste 41 Noroeste 0 -- -- 85
2019-06-10 08:00:00 9.9 24 Noroeste 35 Noroeste 0 -- -- 87
2019-06-10 07:00:00 9.8 28 Noroeste 46 Noroeste 0 -- -- 85
2019-06-10 06:00:00 9.9 36 Noroeste 44 Noroeste 0 -- -- 86
2019-06-10 05:00:00 10.2 19 Noroeste 33 Noroeste 0 -- -- 90
2019-06-10 04:00:00 10.5 24 Noroeste 46 Noroeste 0 -- -- 86
2019-06-10 03:00:00 10.9 33 Noroeste 48 Noroeste 0 -- -- 85
2019-06-10 02:00:00 11.2 35 Noroeste 55 Noroeste 0 -- -- 84
2019-06-10 01:00:00 11.5 37 Noroeste 49 Noroeste 0 -- -- 85
2019-06-10 00:00:00 11.7 33 Noroeste 46 Noroeste 0 -- -- 86
2019-06-09 23:00:00 12.1 36 Noroeste 48 Noroeste 0 -- -- 86
2019-06-09 22:00:00 12.3 34 Noroeste 46 Noroeste 0 -- -- 88
2019-06-09 21:00:00 12.4 34 Noroeste 51 Noroeste 0 -- -- 88
2019-06-09 20:00:00 13.3 38 Noroeste 51 Noroeste 0 -- -- 86
2019-06-09 19:00:00 14.5 33 Noroeste 50 Noroeste 0 -- -- 82
2019-06-09 18:00:00 18.1 39 Noroeste 58 Noroeste 0 -- -- 69
2019-06-09 17:00:00 21 33 Noroeste 44 Noroeste 0 -- -- 61
2019-06-09 16:00:00 23.9 17 Noroeste 33 Noroeste 0 -- -- 52
2019-06-09 15:00:00 24 17 Oeste 25 Oeste 0 -- -- 45
2019-06-09 14:00:00 22.7 12 Este 22 Sudeste 0 -- -- 39
2019-06-09 13:00:00 22.3 6 Oeste 18 Noroeste 0 -- -- 55
2019-06-09 12:00:00 19.4 10 Noroeste 16 Noroeste 0 -- -- 65
2019-06-09 11:00:00 16.5 9 Noroeste 16 Noroeste 0 -- -- 74
2019-06-09 10:00:00 13.4 9 Noroeste 15 Noroeste 0 -- -- 90
2019-06-09 09:00:00 12.3 10 Noroeste 15 Noroeste 0 -- -- 92
2019-06-09 08:00:00 10.2 2 Sudeste 8 Sudeste 0 -- -- 96
2019-06-09 07:00:00 10.4 4 Norte 5 Noroeste 0 -- -- 96
2019-06-09 06:00:00 10.3 0 Calma 11 Noroeste 0 -- -- 95
2019-06-09 05:00:00 10.4 2 Sur 5 Sudeste 0 -- -- 94
2019-06-09 04:00:00 10.4 0 Calma 11 Este 0 -- -- 94
2019-06-09 03:00:00 10.3 5 Sudeste 7 Sudeste 0 -- -- 93
2019-06-09 02:00:00 11.5 6 Norte 17 Noroeste 0 -- -- 90
2019-06-09 01:00:00 12.6 10 Noroeste 23 Noroeste 0 -- -- 86
2019-06-09 00:00:00 13.1 17 Noroeste 26 Noroeste 0 -- -- 84
2019-06-08 23:00:00 13.8 20 Noroeste 27 Noroeste 0 -- -- 80
2019-06-08 22:00:00 14.8 21 Noroeste 27 Noroeste 0 -- -- 76
2019-06-08 21:00:00 16 19 Noroeste 28 Noroeste 0 -- -- 71
2019-06-08 20:00:00 17.6 22 Noroeste 32 Noroeste 0 -- -- 66
2019-06-08 19:00:00 20.9 12 Sur 19 Sur 0 -- -- 47
2019-06-08 18:00:00 21.8 12 Sur 24 Este 0 -- -- 40
2019-06-08 17:00:00 22.6 5 Sur 27 Sur 0 -- -- 40
2019-06-08 16:00:00 21.6 17 Sudeste 33 Sudeste 0 -- -- 42
2019-06-08 15:00:00 21.2 20 Sudeste 36 Sudeste 0 -- -- 39
2019-06-08 14:00:00 21.1 17 Sudeste 33 Sudeste 0 -- -- 48
2019-06-08 13:00:00 19.9 17 Sur 27 Sudeste 0 -- -- 47
2019-06-08 12:00:00 18.2 3 Sur 9 Noroeste 0 -- -- 53
2019-06-08 11:00:00 15.2 4 Noroeste 14 Noroeste 0 -- -- 61
2019-06-08 10:00:00 12.7 6 Noroeste 10 Noroeste 0 -- -- 64
2019-06-08 09:00:00 9.9 2 Norte 6 Este 0 -- -- 72
2019-06-08 08:00:00 6.2 4 Sudeste 9 Sudeste 0 -- -- 88
2019-06-08 07:00:00 3.4 7 Sudeste 9 Sudeste 0 -- -- 93
2019-06-08 06:00:00 3.9 4 Sudeste 9 Sudeste 0 -- -- 91
2019-06-08 05:00:00 4.6 4 Sudeste 9 Noroeste 0 -- -- 87
2019-06-08 04:00:00 6.3 6 Norte 20 Noroeste 0 -- -- 81
2019-06-08 03:00:00 6.4 5 Nordeste 26 Noroeste 0 -- -- 81
2019-06-08 02:00:00 6.8 7 Noroeste 15 Noroeste 0 -- -- 81
2019-06-08 01:00:00 7.6 8 Noroeste 14 Noroeste 0 -- -- 77
2019-06-08 00:00:00 8.7 11 Noroeste 19 Noroeste 0 -- -- 78
2019-06-07 23:00:00 9.2 16 Noroeste 26 Noroeste 0 -- -- 77
2019-06-07 22:00:00 10.6 19 Noroeste 29 Noroeste 0 -- -- 72
2019-06-07 21:00:00 12.5 20 Noroeste 30 Noroeste 0 -- -- 65
2019-06-07 20:00:00 14.2 24 Noroeste 36 Noroeste 0 -- -- 61
2019-06-07 19:00:00 16.6 22 Noroeste 34 Noroeste 0 -- -- 55
2019-06-07 18:00:00 17.3 15 Noroeste 26 Oeste 0 -- -- 49
2019-06-07 17:00:00 18.3 17 Noroeste 35 Noroeste 0 -- -- 40
2019-06-07 16:00:00 18.9 17 Noroeste 37 Noroeste 0 -- -- 40
2019-06-07 15:00:00 17.4 18 Sudoeste 35 Noroeste 0 -- -- 37
2019-06-07 14:00:00 17.3 18 Oeste 30 Noroeste 0 -- -- 42
2019-06-07 13:00:00 15.7 12 Sudoeste 30 Sur 0 -- -- 49
2019-06-07 12:00:00 14.6 9 Sudoeste 35 Sudoeste 0 -- -- 51
2019-06-07 11:00:00 14.6 13 Sur 33 Sudoeste 0 -- -- 58
2019-06-07 10:00:00 12.3 13 Nordeste 22 Sudoeste 0 -- -- 60
2019-06-07 09:00:00 12 7 Sudoeste 32 Sur 0 -- -- 59
2019-06-07 08:00:00 9.9 9 Sudoeste 50 Oeste 0 -- -- 68
2019-06-07 07:00:00 11 24 Oeste 50 Sudoeste 0 -- -- 62
2019-06-07 06:00:00 10.1 18 Sudoeste 58 Sudoeste 1.2 -- -- 77
2019-06-07 05:00:00 10.4 17 Sudoeste 56 Sudeste 0.8 -- -- 75
2019-06-07 04:00:00 15.4 39 Sudeste 69 Sudeste 0 -- -- 69
2019-06-07 03:00:00 16 46 Sudeste 72 Sudeste 0 -- -- 63
2019-06-07 02:00:00 15.5 49 Sudeste 67 Sudeste 0 -- -- 65
2019-06-07 01:00:00 15.6 49 Sudeste 63 Sudeste 0 -- -- 64
2019-06-07 00:00:00 15.9 47 Sudeste 63 Sudeste 0 -- -- 61
2019-06-06 23:00:00 16.1 44 Sudeste 56 Sudeste 0 -- -- 59
2019-06-06 22:00:00 16.3 33 Sudeste 64 Sudeste 0 -- -- 62
2019-06-06 21:00:00 18.6 48 Sudeste 61 Sudeste 0 -- -- 54
2019-06-06 20:00:00 20.3 42 Sudeste 64 Sudeste 0 -- -- 51
2019-06-06 19:00:00 20.8 44 Sudeste 74 Sur 0 -- -- 44
2019-06-06 18:00:00 21.9 43 Sudeste 69 Sudeste 0 -- -- 41
2019-06-06 17:00:00 21.3 45 Sudeste 71 Sudeste 0 -- -- 37
2019-06-06 16:00:00 20.7 41 Sudeste 63 Sudeste 0 -- -- 42
2019-06-06 15:00:00 19.5 38 Sudeste 60 Sudeste 0 -- -- 43
2019-06-06 14:00:00 18.9 38 Sudeste 52 Sudeste 0 -- -- 52
2019-06-06 13:00:00 17.8 29 Sudeste 45 Sudeste 0 -- -- 56
2019-06-06 12:00:00 16.4 25 Sudeste 40 Sudeste 0 -- -- 57
2019-06-06 11:00:00 15.2 17 Sudeste 27 Sudeste 0 -- -- 62
2019-06-06 10:00:00 13.5 8 Sudeste 16 Sudeste 0 -- -- 73
2019-06-06 09:00:00 10 5 Sudeste 9 Sudeste 0 -- -- 87
2019-06-06 08:00:00 7.9 6 Sudeste 8 Sudeste 0 -- -- 95
2019-06-06 07:00:00 6.8 6 Sudeste 8 Sudeste 0 -- -- 96
2019-06-06 06:00:00 6.6 6 Sudeste 7 Sudeste 0 -- -- 95
2019-06-06 05:00:00 6.8 3 Sudeste 9 Sudeste 0 -- -- 93
2019-06-06 04:00:00 7.3 3 Nordeste 13 Norte 0 -- -- 92
2019-06-06 03:00:00 7.5 10 Noroeste 17 Noroeste 0 -- -- 91
2019-06-06 02:00:00 8 9 Noroeste 12 Noroeste 0 -- -- 89
2019-06-06 01:00:00 8 3 Norte 14 Noroeste 0 -- -- 86
2019-06-06 00:00:00 8.7 11 Noroeste 21 Noroeste 0 -- -- 80
2019-06-05 23:00:00 9.1 9 Norte 21 Norte 0 -- -- 80
2019-06-05 22:00:00 9.9 15 Norte 27 Noroeste 0 -- -- 77
2019-06-05 21:00:00 10.8 18 Noroeste 32 Noroeste 0 -- -- 76
2019-06-05 20:00:00 11.8 24 Noroeste 45 Noroeste 0 -- -- 71
2019-06-05 19:00:00 12.6 24 Noroeste 39 Noroeste 0 -- -- 71
2019-06-05 18:00:00 12.5 28 Noroeste 43 Noroeste 0 -- -- 71
2019-06-05 17:00:00 12.7 22 Noroeste 42 Noroeste 0 -- -- 74
2019-06-05 16:00:00 12.8 28 Noroeste 46 Oeste 0.2 -- -- 75
2019-06-05 15:00:00 11.6 22 Noroeste 34 Noroeste 0 -- -- 79
2019-06-05 14:00:00 11.7 19 Noroeste 34 Noroeste 0 -- -- 78
2019-06-05 13:00:00 11.6 23 Noroeste 37 Noroeste 0 -- -- 81
2019-06-05 12:00:00 10.5 20 Norte 37 Noroeste 0.4 -- -- 90
2019-06-05 11:00:00 8.9 24 Noroeste 35 Noroeste 1.4 -- -- 96
2019-06-05 10:00:00 8.8 25 Noroeste 45 Noroeste 2.4 -- -- 98
2019-06-05 09:00:00 9.1 31 Noroeste 40 Noroeste 6.8 -- -- 98
2019-06-05 08:00:00 8.9 24 Noroeste 34 Oeste 4 -- -- 97
2019-06-05 07:00:00 8.9 21 Noroeste 30 Noroeste 3.8 -- -- 97
2019-06-05 06:00:00 9.2 18 Noroeste 31 Noroeste 5.8 -- -- 97
2019-06-05 05:00:00 9.5 22 Noroeste 33 Noroeste 0.8 -- -- 94
2019-06-05 04:00:00 9.8 19 Noroeste 28 Noroeste 0.4 -- -- 90
2019-06-05 03:00:00 10.3 21 Noroeste 31 Noroeste 0 -- -- 87
2019-06-05 02:00:00 10.2 21 Noroeste 28 Noroeste 0 -- -- 88
2019-06-05 01:00:00 10.5 19 Noroeste 36 Noroeste 0 -- -- 89
2019-06-05 00:00:00 10.6 23 Noroeste 42 Noroeste 0 -- -- 89
2019-06-04 23:00:00 11.4 27 Noroeste 42 Noroeste 0 -- -- 91
2019-06-04 22:00:00 12.4 32 Noroeste 45 Noroeste 1.2 -- -- 93
2019-06-04 21:00:00 13.8 28 Noroeste 43 Noroeste 0 -- -- 86
2019-06-04 20:00:00 14.8 31 Noroeste 51 Noroeste 0 -- -- 84
2019-06-04 19:00:00 15.8 38 Noroeste 53 Noroeste 0 -- -- 84
2019-06-04 18:00:00 18 37 Noroeste 68 Oeste 0.2 -- -- 82
2019-06-04 17:00:00 20.2 9 Oeste 39 Sudeste 1.6 -- -- 70
2019-06-04 16:00:00 26.4 26 Sudeste 49 Sudeste 0 -- -- 36
2019-06-04 15:00:00 27.9 29 Sur 51 Sur 0 -- -- 36
2019-06-04 14:00:00 27.5 27 Sudeste 51 Sudeste 0 -- -- 36
2019-06-04 13:00:00 26 31 Sudeste 48 Sudeste 0 -- -- 36
2019-06-04 12:00:00 24.7 28 Sudeste 42 Sudeste 0 -- -- 38
2019-06-04 11:00:00 23.1 23 Sur 40 Sudeste 0 -- -- 40
2019-06-04 10:00:00 21.3 23 Sur 33 Sur 0 -- -- 46
2019-06-04 09:00:00 19.8 17 Sur 27 Este 0 -- -- 48
2019-06-04 08:00:00 17.8 17 Este 26 Este 0 -- -- 52
2019-06-04 07:00:00 17 4 Sur 13 Sur 0 -- -- 51
2019-06-04 06:00:00 15.5 8 Sur 19 Sudeste 0 -- -- 59
2019-06-04 05:00:00 14.8 11 Sur 19 Sur 0 -- -- 69
2019-06-04 04:00:00 14.4 5 Norte 14 Sudeste 0 -- -- 94
2019-06-04 03:00:00 13.1 11 Sudeste 12 Sudeste 0 -- -- 94
2019-06-04 02:00:00 15.8 10 Norte 15 Noroeste 0 -- -- 92
2019-06-04 01:00:00 16.9 4 Noroeste 18 Noroeste 0 -- -- 89
2019-06-04 00:00:00 18.8 14 Noroeste 21 Noroeste 0 -- -- 83
2019-06-03 23:00:00 20.4 11 Noroeste 13 Noroeste 0 -- -- 69
2019-06-03 22:00:00 21.3 10 Sudeste 18 Sudeste 0 -- -- 57
2019-06-03 21:00:00 24.6 8 Sudeste 22 Sur 0 -- -- 47
2019-06-03 20:00:00 27.1 10 Sur 21 Sur 0 -- -- 49
2019-06-03 19:00:00 28.4 6 Oeste 23 Sur 0 -- -- 38
2019-06-03 18:00:00 27.6 7 Sudeste 27 Sudeste 0 -- -- 44
2019-06-03 17:00:00 28 15 Sudeste 27 Este 0 -- -- 38
2019-06-03 16:00:00 27 14 Sudeste 24 Sudeste 0 -- -- 40
2019-06-03 15:00:00 26.6 12 Sudeste 28 Sur 0 -- -- 42
2019-06-03 14:00:00 25.7 8 Sudoeste 14 Sur 0 -- -- 46
2019-06-03 13:00:00 23.4 5 Noroeste 19 Noroeste 0 -- -- 54
2019-06-03 12:00:00 20.1 14 Noroeste 21 Noroeste 0 -- -- 65
2019-06-03 11:00:00 19.3 15 Noroeste 19 Noroeste 0 -- -- 64
2019-06-03 10:00:00 16.3 8 Noroeste 11 Noroeste 0 -- -- 72
2019-06-03 09:00:00 14.3 6 Norte 8 Noroeste 0 -- -- 78
2019-06-03 08:00:00 13.3 6 Oeste 12 Sudeste 0 -- -- 84
2019-06-03 07:00:00 12.7 3 Sur 16 Noroeste 0 -- -- 85
2019-06-03 06:00:00 13.2 9 Noroeste 18 Noroeste 0 -- -- 83
2019-06-03 05:00:00 13.1 4 Sudeste 14 Sudeste 0 -- -- 85
2019-06-03 04:00:00 12.2 12 Sudeste 14 Sudeste 0 -- -- 90
2019-06-03 03:00:00 13.6 2 Norte 8 Norte 0 -- -- 81
2019-06-03 02:00:00 14.8 3 Norte 10 Norte 0 -- -- 78
2019-06-03 01:00:00 15.7 4 Noroeste 17 Noroeste 0 -- -- 80
2019-06-03 00:00:00 17.3 14 Noroeste 25 Noroeste 0 -- -- 69
2019-06-02 23:00:00 18.3 13 Noroeste 28 Noroeste 0 -- -- 70
2019-06-02 22:00:00 19.7 24 Noroeste 41 Noroeste 0 -- -- 68
2019-06-02 21:00:00 21.8 25 Noroeste 34 Noroeste 0 -- -- 67
2019-06-02 20:00:00 27.1 0 Calma 10 Noroeste 0 -- -- 56
2019-06-02 19:00:00 26.4 10 Noroeste 15 Oeste 0 -- -- 57
2019-06-02 18:00:00 28.8 9 Noroeste 12 Oeste 0 -- -- 43
2019-06-02 17:00:00 29.6 4 Sudeste 23 Sudeste 0 -- -- 33
2019-06-02 16:00:00 29.4 9 Sur 22 Sudeste 0 -- -- 35
2019-06-02 15:00:00 28.3 14 Sudeste 24 Sudeste 0 -- -- 41
2019-06-02 14:00:00 27.2 13 Sur 25 Sur 0 -- -- 42
2019-06-02 13:00:00 26.5 16 Sudeste 24 Sudeste 0 -- -- 44
2019-06-02 12:00:00 24.6 8 Oeste 22 Este 0 -- -- 58
2019-06-02 11:00:00 23.9 17 Sudeste 24 Sudeste 0 -- -- 49
2019-06-02 10:00:00 20.8 4 Noroeste 10 Noroeste 0 -- -- 61
2019-06-02 09:00:00 18.9 3 Norte 5 Noroeste 0 -- -- 66
2019-06-02 08:00:00 16.5 5 Este 18 Sudeste 0 -- -- 65
2019-06-02 07:00:00 14.8 7 Sudeste 18 Este 0 -- -- 68
2019-06-02 06:00:00 14.1 12 Sudeste 17 Sudeste 0 -- -- 72
2019-06-02 05:00:00 15.2 9 Sudeste 16 Sudeste 0 -- -- 68
2019-06-02 04:00:00 15.1 13 Sudeste 16 Sudeste 0 -- -- 69
2019-06-02 03:00:00 15.6 9 Sudeste 18 Sudeste 0 -- -- 68
2019-06-02 02:00:00 17.3 15 Sudeste 28 Sudeste 0 -- -- 59
2019-06-02 01:00:00 15.3 15 Sudeste 19 Sudeste 0 -- -- 63
2019-06-02 00:00:00 14.6 12 Sudeste 17 Sudeste 0 -- -- 68
2019-06-01 23:00:00 14.6 13 Sudeste 15 Sudeste 0 -- -- 76
2019-06-01 22:00:00 17.3 12 Sudeste 16 Sudeste 0 -- -- 73
2019-06-01 21:00:00 21.3 8 Sudeste 9 Sudeste 0 -- -- 55
2019-06-01 20:00:00 27.5 6 Oeste 11 Oeste 0 -- -- 41
2019-06-01 19:00:00 28.1 5 Sudeste 13 Sudeste 0 -- -- 31
2019-06-01 18:00:00 28.1 9 Este 18 Sur 0 -- -- 36
2019-06-01 17:00:00 28.2 9 Sudeste 19 Este 0 -- -- 40
2019-06-01 16:00:00 27.9 11 Sur 23 Sur 0 -- -- 34
2019-06-01 15:00:00 27.2 10 Sudeste 28 Sudeste 0 -- -- 36
2019-06-01 14:00:00 26.3 16 Sur 28 Sur 0 -- -- 40
2019-06-01 13:00:00 24.3 10 Noroeste 17 Noroeste 0 -- -- 57
2019-06-01 12:00:00 22.6 10 Noroeste 17 Noroeste 0 -- -- 63
2019-06-01 11:00:00 20.7 9 Noroeste 15 Noroeste 0 -- -- 68
2019-06-01 10:00:00 18.9 9 Noroeste 13 Noroeste 0 -- -- 75
2019-06-01 09:00:00 17.8 2 Noroeste 5 Noroeste 0 -- -- 73
2019-06-01 08:00:00 14.5 0 Calma 8 Noroeste 0 -- -- 82
2019-06-01 07:00:00 13.3 3 Sur 13 Sudeste 0 -- -- 83
2019-06-01 06:00:00 13.3 5 Sudeste 10 Sudeste 0 -- -- 84
2019-06-01 05:00:00 13.5 5 Sudeste 8 Sudeste 0 -- -- 83
2019-06-01 04:00:00 14 3 Este 16 Sudeste 0 -- -- 82
2019-06-01 03:00:00 13.7 11 Sudeste 17 Sudeste 0 -- -- 86
2019-06-01 02:00:00 13.8 9 Sudeste 13 Sudeste 0 -- -- 88
2019-06-01 01:00:00 12.7 10 Sudeste 14 Sudeste 0 -- -- 91
2019-06-01 00:00:00 13.6 11 Sudeste 13 Sudeste 0 -- -- 89
2019-05-31 23:00:00 15.1 11 Sudeste 13 Sudeste 0 -- -- 86
2019-05-31 22:00:00 20.7 3 Noroeste 18 Norte 0 -- -- 61
2019-05-31 21:00:00 23 13 Norte 27 Norte 0 -- -- 55
2019-05-31 20:00:00 25.2 12 Noroeste 19 Norte 0 -- -- 51
2019-05-31 19:00:00 26.2 12 Noroeste 18 Noroeste 0 -- -- 45
2019-05-31 18:00:00 26.4 11 Noroeste 18 Noroeste 0 -- -- 49
2019-05-31 17:00:00 26.2 11 Noroeste 22 Oeste 0 -- -- 48
2019-05-31 16:00:00 25.2 12 Noroeste 24 Noroeste 0 -- -- 51
2019-05-31 15:00:00 24.3 15 Noroeste 23 Noroeste 0 -- -- 54
2019-05-31 14:00:00 23.3 14 Noroeste 22 Noroeste 0 -- -- 57
2019-05-31 13:00:00 22.5 12 Noroeste 21 Oeste 0 -- -- 60
2019-05-31 12:00:00 21.2 12 Noroeste 17 Noroeste 0 -- -- 60
2019-05-31 11:00:00 20.1 6 Noroeste 11 Noroeste 0 -- -- 63
2019-05-31 10:00:00 18.4 4 Noroeste 8 Sudeste 0 -- -- 68
2019-05-31 09:00:00 14.9 4 Sudeste 8 Sudeste 0 -- -- 81
2019-05-31 08:00:00 10 6 Sudeste 12 Sudeste 0 -- -- 94
2019-05-31 07:00:00 7.8 9 Sudeste 14 Sudeste 0 -- -- 96
2019-05-31 06:00:00 8 8 Sudeste 11 Sudeste 0 -- -- 96
2019-05-31 05:00:00 8.8 7 Sudeste 9 Sudeste 0 -- -- 95
2019-05-31 04:00:00 9.9 4 Sudeste 7 Sudeste 0 -- -- 93
2019-05-31 03:00:00 12.2 4 Norte 8 Noroeste 0 -- -- 92
2019-05-31 02:00:00 13.6 12 Noroeste 27 Noroeste 0 -- -- 86
2019-05-31 01:00:00 13.9 22 Noroeste 34 Noroeste 0 -- -- 86
2019-05-31 00:00:00 14.4 22 Noroeste 27 Noroeste 0 -- -- 84
2019-05-30 23:00:00 15.5 22 Noroeste 30 Noroeste 0 -- -- 77
2019-05-30 22:00:00 16.4 21 Noroeste 33 Noroeste 0 -- -- 74
2019-05-30 21:00:00 18.8 27 Noroeste 41 Noroeste 0 -- -- 63
2019-05-30 20:00:00 20.6 34 Norte 42 Norte 0 -- -- 55
2019-05-30 19:00:00 22.6 28 Norte 37 Norte 0 -- -- 47
2019-05-30 18:00:00 24.3 22 Noroeste 37 Noroeste 0 -- -- 40
2019-05-30 17:00:00 24.8 22 Noroeste 36 Noroeste 0 -- -- 41
2019-05-30 16:00:00 24.6 23 Noroeste 33 Noroeste 0 -- -- 40
2019-05-30 15:00:00 24 19 Noroeste 37 Noroeste 0 -- -- 42
2019-05-30 14:00:00 22.4 24 Noroeste 39 Noroeste 0 -- -- 50
2019-05-30 13:00:00 20.8 26 Noroeste 39 Noroeste 0 -- -- 51
2019-05-30 12:00:00 18.5 21 Noroeste 33 Noroeste 0 -- -- 58
2019-05-30 11:00:00 15.6 26 Noroeste 38 Noroeste 0 -- -- 64
2019-05-30 10:00:00 13.2 28 Noroeste 38 Noroeste 0 -- -- 70
2019-05-30 09:00:00 11 23 Noroeste 35 Noroeste 0 -- -- 76
2019-05-30 08:00:00 8.9 23 Noroeste 30 Noroeste 0 -- -- 83
2019-05-30 07:00:00 7.7 25 Noroeste 30 Noroeste 0 -- -- 87
2019-05-30 06:00:00 7.1 20 Noroeste 30 Noroeste 0 -- -- 89
2019-05-30 05:00:00 7.6 23 Noroeste 35 Noroeste 0 -- -- 87
2019-05-30 04:00:00 8 23 Noroeste 31 Noroeste 0 -- -- 86
2019-05-30 03:00:00 8.5 17 Norte 29 Noroeste 0 -- -- 83
2019-05-30 02:00:00 8.6 21 Noroeste 30 Noroeste 0 -- -- 84
2019-05-30 01:00:00 8.9 14 Norte 27 Noroeste 0 -- -- 82
2019-05-30 00:00:00 9.3 23 Noroeste 33 Noroeste 0 -- -- 79
2019-05-29 23:00:00 9.3 22 Noroeste 37 Noroeste 0 -- -- 78
2019-05-29 22:00:00 10.4 32 Noroeste 41 Noroeste 0 -- -- 75
2019-05-29 21:00:00 12.4 25 Noroeste 44 Norte 0 -- -- 65
2019-05-29 20:00:00 13.9 26 Noroeste 50 Norte 0 -- -- 60
2019-05-29 19:00:00 14.6 33 Noroeste 50 Noroeste 0 -- -- 56
2019-05-29 18:00:00 15 36 Norte 54 Noroeste 0 -- -- 53
2019-05-29 17:00:00 15.8 31 Noroeste 52 Noroeste 0 -- -- 54
2019-05-29 16:00:00 15.6 32 Noroeste 53 Noroeste 0 -- -- 56
2019-05-29 15:00:00 14.8 27 Noroeste 50 Noroeste 0 -- -- 57
2019-05-29 14:00:00 14.7 34 Noroeste 46 Noroeste 0 -- -- 59
2019-05-29 13:00:00 13.9 31 Noroeste 44 Norte 0 -- -- 61
2019-05-29 12:00:00 12.1 30 Norte 45 Noroeste 0 -- -- 65
2019-05-29 11:00:00 11.6 27 Noroeste 48 Noroeste 0 -- -- 71
2019-05-29 10:00:00 10.9 29 Noroeste 51 Noroeste 0 -- -- 73
2019-05-29 09:00:00 11.5 21 Noroeste 28 Noroeste 0 -- -- 82
2019-05-29 08:00:00 9.3 18 Noroeste 24 Noroeste 0 -- -- 89
2019-05-29 07:00:00 7.9 15 Noroeste 26 Noroeste 0 -- -- 90
2019-05-29 06:00:00 8.1 21 Noroeste 33 Noroeste 0 -- -- 92
2019-05-29 05:00:00 8.4 21 Noroeste 41 Noroeste 0 -- -- 88
2019-05-29 04:00:00 9 29 Noroeste 40 Noroeste 0 -- -- 79
2019-05-29 03:00:00 8.3 22 Noroeste 30 Noroeste 0 -- -- 92
2019-05-29 02:00:00 8.1 23 Noroeste 33 Noroeste 0 -- -- 93
2019-05-29 01:00:00 8.3 20 Noroeste 32 Noroeste 0 -- -- 91
2019-05-29 00:00:00 8.6 22 Noroeste 37 Noroeste 0 -- -- 88
2019-05-28 23:00:00 8.9 34 Noroeste 51 Noroeste 0 -- -- 85
2019-05-28 22:00:00 9.1 29 Noroeste 40 Noroeste 0 -- -- 85
2019-05-28 21:00:00 8.9 28 Noroeste 48 Norte 0 -- -- 90
2019-05-28 20:00:00 10.5 26 Noroeste 59 Noroeste 0 -- -- 74
2019-05-28 19:00:00 11.7 40 Noroeste 60 Noroeste 0 -- -- 67
2019-05-28 18:00:00 12.9 40 Noroeste 62 Noroeste 0 -- -- 67
2019-05-28 17:00:00 12 35 Noroeste 66 Noroeste 0 -- -- 71
2019-05-28 16:00:00 12.1 33 Noroeste 62 Noroeste 0 -- -- 72
2019-05-28 15:00:00 12.5 29 Noroeste 53 Noroeste 0 -- -- 71
2019-05-28 14:00:00 11.8 41 Noroeste 55 Noroeste 0 -- -- 72
2019-05-28 13:00:00 11.3 31 Norte 42 Norte 0.2 -- -- 77
2019-05-28 12:00:00 10.7 23 Noroeste 37 Noroeste 0 -- -- 85
2019-05-28 11:00:00 9.3 23 Noroeste 35 Noroeste 0.2 -- -- 96
2019-05-28 10:00:00 9.7 26 Noroeste 36 Noroeste 0 -- -- 86
2019-05-28 09:00:00 9.5 31 Noroeste 40 Noroeste 0 -- -- 85
2019-05-28 08:00:00 9 26 Noroeste 59 Noroeste 0 -- -- 83
2019-05-28 07:00:00 8.7 33 Noroeste 41 Noroeste 0 -- -- 85
2019-05-28 06:00:00 8.9 27 Noroeste 46 Noroeste 0 -- -- 84
2019-05-28 05:00:00 8.9 35 Noroeste 49 Noroeste 0 -- -- 85
2019-05-28 04:00:00 9.1 31 Noroeste 46 Noroeste 0 -- -- 83
2019-05-28 03:00:00 9.3 30 Noroeste 46 Noroeste 0 -- -- 82
2019-05-28 02:00:00 9.4 29 Noroeste 47 Noroeste 0 -- -- 81
2019-05-28 01:00:00 10.3 32 Noroeste 52 Noroeste 0 -- -- 77
2019-05-28 00:00:00 10.6 32 Noroeste 46 Noroeste 0 -- -- 82
2019-05-27 23:00:00 11 29 Noroeste 47 Noroeste 0 -- -- 81
2019-05-27 22:00:00 11.6 35 Noroeste 53 Norte 0 -- -- 77
2019-05-27 21:00:00 12.8 32 Noroeste 55 Noroeste 0 -- -- 78
2019-05-27 20:00:00 13.7 30 Noroeste 52 Noroeste 0 -- -- 81
2019-05-27 19:00:00 14.5 29 Noroeste 49 Noroeste 0 -- -- 79
2019-05-27 18:00:00 15.8 29 Noroeste 46 Noroeste 0 -- -- 74
2019-05-27 17:00:00 15.9 22 Noroeste 41 Noroeste 0 -- -- 74
2019-05-27 16:00:00 14.9 30 Noroeste 45 Noroeste 0 -- -- 75
2019-05-27 15:00:00 15.6 35 Noroeste 45 Noroeste 0 -- -- 72
2019-05-27 14:00:00 14.4 32 Noroeste 46 Noroeste 0 -- -- 78
2019-05-27 13:00:00 15.1 35 Noroeste 48 Noroeste 0 -- -- 77
2019-05-27 12:00:00 14 37 Noroeste 53 Noroeste 0 -- -- 77
2019-05-27 11:00:00 13.1 36 Noroeste 49 Noroeste 0 -- -- 80
2019-05-27 10:00:00 12.7 33 Noroeste 44 Noroeste 0 -- -- 82
2019-05-27 09:00:00 11.3 30 Noroeste 42 Noroeste 0 -- -- 88
2019-05-27 08:00:00 10.6 33 Noroeste 40 Noroeste 0 -- -- 88
2019-05-27 07:00:00 10.1 32 Noroeste 43 Noroeste 0 -- -- 90
2019-05-27 06:00:00 10 25 Noroeste 47 Noroeste 0 -- -- 91
2019-05-27 05:00:00 10.2 34 Noroeste 43 Noroeste 0 -- -- 88
2019-05-27 04:00:00 10.2 28 Noroeste 42 Noroeste 0 -- -- 89
2019-05-27 03:00:00 10.3 30 Noroeste 44 Noroeste 0 -- -- 88
2019-05-27 02:00:00 10.3 34 Noroeste 48 Noroeste 0 -- -- 88
2019-05-27 01:00:00 10.1 31 Noroeste 47 Noroeste 0 -- -- 95
2019-05-27 00:00:00 10.9 29 Noroeste 44 Noroeste 0 -- -- 88